Time;durP1;ratioP1;P1;durP2;ratioP2;P2;SDS_P1;SDS_P2;PMS_P1;PMS_P2;Temp;Humidity;BMP_temperature;BMP_pressure;BME280_temperature;BME280_humidity;BME280_pressure;Samples;Min_cycle;Max_cycle;Signal;HPM_P1;HPM_P2
2023/10/02 00:00:40;;;;;;;8.82;4.97;;;;;;;;;;5073095;28;20209;-75
2023/10/02 00:03:09;;;;;;;7.38;4.57;;;;;;;;;;5073276;28;20198;-75
2023/10/02 00:08:31;;;;;;;6.93;5.28;;;;;;;;;;5073110;28;20755;-75
2023/10/02 00:11:05;;;;;;;7.65;4.75;;;;;;;;;;5072957;28;20232;-75
2023/10/02 00:13:32;;;;;;;8.93;5.65;;;;;;;;;;5073381;28;20218;-75
2023/10/02 00:16:01;;;;;;;10.07;5.15;;;;;;;;;;5073021;28;20199;-75
2023/10/02 00:18:28;;;;;;;8.35;4.93;;;;;;;;;;5072683;28;20790;-75
2023/10/02 00:23:59;;;;;;;9.38;5.20;;;;;;;;;;5072774;28;20256;-75
2023/10/02 00:26:24;;;;;;;9.45;5.90;;;;;;;;;;5072936;28;20652;-75
2023/10/02 00:28:51;;;;;;;8.30;5.13;;;;;;;;;;5072911;28;20212;-75
2023/10/02 00:31:33;;;;;;;9.35;4.85;;;;;;;;;;5068372;28;20641;-75
2023/10/02 00:34:03;;;;;;;10.65;5.25;;;;;;;;;;5053183;28;20190;-75
2023/10/02 00:36:30;;;;;;;8.20;5.22;;;;;;;;;;5053073;28;20244;-75
2023/10/02 00:39:24;;;;;;;15.40;6.47;;;;;;;;;;5052812;28;20221;-75
2023/10/02 00:44:51;;;;;;;10.07;6.13;;;;;;;;;;5069393;28;20194;-74
2023/10/02 00:47:35;;;;;;;14.55;7.00;;;;;;;;;;5073101;28;20614;-75
2023/10/02 00:50:08;;;;;;;14.07;7.82;;;;;;;;;;5072806;28;20179;-75
2023/10/02 00:52:36;;;;;;;15.75;7.78;;;;;;;;;;5072752;28;20187;-75
2023/10/02 00:55:06;;;;;;;13.93;7.20;;;;;;;;;;5072899;28;20194;-75
2023/10/02 00:57:36;;;;;;;16.75;8.15;;;;;;;;;;5072211;28;20211;-75
2023/10/02 01:00:06;;;;;;;15.75;9.35;;;;;;;;;;5072703;28;20221;-75
2023/10/02 01:02:39;;;;;;;19.80;9.43;;;;;;;;;;5072901;28;20200;-75
2023/10/02 01:05:14;;;;;;;18.75;8.00;;;;;;;;;;5072631;28;20178;-75
2023/10/02 01:07:42;;;;;;;20.17;8.50;;;;;;;;;;5072570;28;20186;-75
2023/10/02 01:10:17;;;;;;;12.55;6.50;;;;;;;;;;5072471;28;20672;-75
2023/10/02 01:13:01;;;;;;;12.25;6.40;;;;;;;;;;5032477;28;20345;-75
2023/10/02 01:15:28;;;;;;;12.00;6.55;;;;;;;;;;5032883;28;20215;-75
2023/10/02 01:18:21;;;;;;;13.43;6.50;;;;;;;;;;5032688;28;20215;-75
2023/10/02 01:20:53;;;;;;;15.70;6.80;;;;;;;;;;5033443;28;20194;-75
2023/10/02 01:23:23;;;;;;;12.57;6.13;;;;;;;;;;5036000;28;20183;-75
2023/10/02 01:25:56;;;;;;;11.15;6.28;;;;;;;;;;5049657;28;20611;-75
2023/10/02 01:28:25;;;;;;;14.63;7.40;;;;;;;;;;5076279;28;20186;-75
2023/10/02 01:30:55;;;;;;;12.40;7.22;;;;;;;;;;5075929;28;20240;-75
2023/10/02 01:33:26;;;;;;;12.60;7.20;;;;;;;;;;5076185;28;20189;-75
2023/10/02 01:35:54;;;;;;;15.30;8.05;;;;;;;;;;5075887;28;20269;-75
2023/10/02 01:38:26;;;;;;;16.98;8.98;;;;;;;;;;5073794;28;20286;-75
2023/10/02 01:41:02;;;;;;;17.25;6.85;;;;;;;;;;5076080;28;20174;-75
2023/10/02 01:43:32;;;;;;;13.65;7.90;;;;;;;;;;5075703;28;20265;-75
2023/10/02 01:46:00;;;;;;;16.17;6.68;;;;;;;;;;5075570;28;20657;-75
2023/10/02 01:48:48;;;;;;;14.10;7.85;;;;;;;;;;5075563;28;20198;-75
2023/10/02 01:51:15;;;;;;;16.83;8.75;;;;;;;;;;5075873;28;20209;-75
2023/10/02 01:53:43;;;;;;;15.07;7.88;;;;;;;;;;5074008;28;20554;-75
2023/10/02 01:56:13;;;;;;;14.52;7.35;;;;;;;;;;5075453;28;20641;-75
2023/10/02 01:58:41;;;;;;;13.93;6.97;;;;;;;;;;5075459;28;20653;-75
2023/10/02 02:01:09;;;;;;;16.27;6.78;;;;;;;;;;5075834;28;20190;-75
2023/10/02 02:03:39;;;;;;;16.38;7.70;;;;;;;;;;5075669;28;20544;-76
2023/10/02 02:06:10;;;;;;;16.92;7.90;;;;;;;;;;5073892;28;20248;-75
2023/10/02 02:08:38;;;;;;;16.33;7.60;;;;;;;;;;5075465;28;20194;-75
2023/10/02 02:11:18;;;;;;;12.05;6.50;;;;;;;;;;5075445;28;20243;-75
2023/10/02 02:13:48;;;;;;;14.38;5.68;;;;;;;;;;5075296;28;20668;-75
2023/10/02 02:16:21;;;;;;;15.50;7.40;;;;;;;;;;5075183;28;20774;-75
2023/10/02 02:18:50;;;;;;;14.77;7.95;;;;;;;;;;5075036;28;20194;-75
2023/10/02 02:21:18;;;;;;;20.58;8.35;;;;;;;;;;5074854;28;20248;-75
2023/10/02 02:23:46;;;;;;;16.30;8.40;;;;;;;;;;5075290;28;20198;-75
2023/10/02 02:26:21;;;;;;;13.70;6.53;;;;;;;;;;5075015;28;20195;-75
2023/10/02 02:28:51;;;;;;;12.25;5.78;;;;;;;;;;5074983;28;20178;-75
2023/10/02 02:31:30;;;;;;;10.65;5.25;;;;;;;;;;5073307;28;20229;-75
2023/10/02 02:34:02;;;;;;;16.67;5.63;;;;;;;;;;5074932;28;20540;-75
2023/10/02 02:36:34;;;;;;;10.07;5.35;;;;;;;;;;5075111;28;20190;-74
2023/10/02 02:39:17;;;;;;;9.10;4.65;;;;;;;;;;5074596;28;20181;-74
2023/10/02 02:41:48;;;;;;;13.23;6.18;;;;;;;;;;5075056;28;20178;-75
2023/10/02 02:44:36;;;;;;;12.48;5.90;;;;;;;;;;5074580;28;20197;-74
2023/10/02 02:47:07;;;;;;;17.33;6.57;;;;;;;;;;5035014;28;20210;-75
2023/10/02 02:49:48;;;;;;;12.00;5.93;;;;;;;;;;5034750;28;20589;-74
2023/10/02 02:52:15;;;;;;;9.35;6.25;;;;;;;;;;5034910;28;20191;-75
2023/10/02 02:54:45;;;;;;;12.82;5.40;;;;;;;;;;5034824;28;20210;-75
2023/10/02 02:57:12;;;;;;;11.27;5.53;;;;;;;;;;5034322;28;20265;-75
2023/10/02 02:59:41;;;;;;;13.10;5.80;;;;;;;;;;5052943;28;20222;-75
2023/10/02 03:02:21;;;;;;;9.88;5.18;;;;;;;;;;5054448;28;20596;-75
2023/10/02 03:04:50;;;;;;;11.05;6.30;;;;;;;;;;5054578;28;20236;-75
2023/10/02 03:07:29;;;;;;;12.65;5.72;;;;;;;;;;5054663;28;20194;-75
2023/10/02 03:09:56;;;;;;;14.85;5.63;;;;;;;;;;5054255;28;20179;-75
2023/10/02 03:12:24;;;;;;;12.52;7.00;;;;;;;;;;5054614;28;20179;-75
2023/10/02 03:14:54;;;;;;;13.82;6.75;;;;;;;;;;5054020;28;20175;-74
2023/10/02 03:17:29;;;;;;;10.73;6.50;;;;;;;;;;5072470;28;20264;-75
2023/10/02 03:20:00;;;;;;;14.70;7.00;;;;;;;;;;5072028;28;20269;-75
2023/10/02 03:22:33;;;;;;;12.57;7.30;;;;;;;;;;5074162;28;20202;-75
2023/10/02 03:25:25;;;;;;;9.30;5.93;;;;;;;;;;5073763;28;20175;-75
2023/10/02 03:27:49;;;;;;;9.90;5.95;;;;;;;;;;5073946;28;20619;-75
2023/10/02 03:30:35;;;;;;;8.50;5.03;;;;;;;;;;5073603;28;20239;-74
2023/10/02 03:33:02;;;;;;;9.85;5.35;;;;;;;;;;5072664;28;20186;-74
2023/10/02 03:35:30;;;;;;;10.77;5.45;;;;;;;;;;5053426;28;20195;-74
2023/10/02 03:37:58;;;;;;;10.48;6.75;;;;;;;;;;5053391;28;20214;-74
2023/10/02 03:40:25;;;;;;;9.15;5.53;;;;;;;;;;5053456;28;20245;-75
2023/10/02 03:42:54;;;;;;;12.68;5.72;;;;;;;;;;5053372;28;20650;-75
2023/10/02 03:45:38;;;;;;;11.27;5.22;;;;;;;;;;5053646;28;20190;-75
2023/10/02 03:48:07;;;;;;;12.00;5.88;;;;;;;;;;5055002;28;20206;-75
2023/10/02 03:50:37;;;;;;;11.30;6.20;;;;;;;;;;5053454;28;20688;-75
2023/10/02 03:53:12;;;;;;;15.95;8.20;;;;;;;;;;5053328;28;20226;-75
2023/10/02 03:55:40;;;;;;;16.55;8.15;;;;;;;;;;5053637;28;20183;-75
2023/10/02 03:58:09;;;;;;;13.68;6.53;;;;;;;;;;5053446;28;20214;-75
2023/10/02 04:00:44;;;;;;;13.05;6.60;;;;;;;;;;5053320;28;20187;-75
2023/10/02 04:03:14;;;;;;;11.88;6.13;;;;;;;;;;5060004;28;20174;-75
2023/10/02 04:05:43;;;;;;;13.02;6.03;;;;;;;;;;5073203;28;20190;-75
2023/10/02 04:08:21;;;;;;;13.73;6.47;;;;;;;;;;5073117;28;20653;-75
2023/10/02 04:11:03;;;;;;;15.45;7.10;;;;;;;;;;5073555;28;20273;-75
2023/10/02 04:13:34;;;;;;;15.50;6.53;;;;;;;;;;5073624;28;20218;-75
2023/10/02 04:18:49;;;;;;;12.93;6.70;;;;;;;;;;5073125;28;20290;-75
2023/10/02 04:21:19;;;;;;;13.38;6.65;;;;;;;;;;5073342;28;20219;-75
2023/10/02 04:23:47;;;;;;;17.02;7.80;;;;;;;;;;5072999;28;20182;-75
2023/10/02 04:26:19;;;;;;;21.25;10.10;;;;;;;;;;5073337;28;20186;-75
2023/10/02 04:28:49;;;;;;;18.80;9.55;;;;;;;;;;5073306;28;20201;-75
2023/10/02 04:31:21;;;;;;;18.17;8.48;;;;;;;;;;5058387;28;20185;-75
2023/10/02 04:33:54;;;;;;;17.40;8.93;;;;;;;;;;5053152;28;20640;-75
2023/10/02 04:36:31;;;;;;;16.73;8.43;;;;;;;;;;5053307;28;20183;-75
2023/10/02 04:38:58;;;;;;;22.92;10.32;;;;;;;;;;5052769;28;20251;-74
2023/10/02 04:41:27;;;;;;;24.58;10.52;;;;;;;;;;5053797;28;20252;-75
2023/10/02 04:43:59;;;;;;;26.08;10.98;;;;;;;;;;5053122;28;20551;-74
2023/10/02 04:46:32;;;;;;;19.67;10.50;;;;;;;;;;5052808;28;20244;-75
2023/10/02 04:49:00;;;;;;;21.60;10.52;;;;;;;;;;5052494;28;20634;-75
2023/10/02 04:51:30;;;;;;;20.95;10.15;;;;;;;;;;5052760;28;20668;-75
2023/10/02 04:53:59;;;;;;;23.13;11.43;;;;;;;;;;5052960;28;20223;-75
2023/10/02 04:56:28;;;;;;;21.48;11.13;;;;;;;;;;5055042;28;20217;-74
2023/10/02 04:58:58;;;;;;;18.67;10.20;;;;;;;;;;5057786;28;20234;-75
2023/10/02 05:01:29;;;;;;;26.70;13.55;;;;;;;;;;5056542;28;20183;-74
2023/10/02 05:04:02;;;;;;;23.38;12.50;;;;;;;;;;5056471;28;20616;-74
2023/10/02 05:06:52;;;;;;;23.25;11.52;;;;;;;;;;5056694;28;20179;-74
2023/10/02 05:09:26;;;;;;;29.65;12.93;;;;;;;;;;5056132;28;20199;-74
2023/10/02 05:11:55;;;;;;;19.50;9.18;;;;;;;;;;5056386;28;20178;-74
2023/10/02 05:14:33;;;;;;;23.33;10.40;;;;;;;;;;5055627;28;20705;-74
2023/10/02 05:17:38;;;;;;;15.60;8.65;;;;;;;;;;5056247;28;20669;-75
2023/10/02 05:20:11;;;;;;;17.38;8.80;;;;;;;;;;5055966;28;20649;-74
2023/10/02 05:22:40;;;;;;;26.88;10.35;;;;;;;;;;5056192;28;20183;-74
2023/10/02 05:25:08;;;;;;;28.05;9.80;;;;;;;;;;5055755;28;20566;-74
2023/10/02 05:27:36;;;;;;;19.42;8.70;;;;;;;;;;5057198;28;20229;-74
2023/10/02 05:30:12;;;;;;;26.10;11.52;;;;;;;;;;5055723;28;20191;-74
2023/10/02 05:32:40;;;;;;;22.25;11.40;;;;;;;;;;5055966;28;20214;-75
2023/10/02 05:35:18;;;;;;;24.48;13.43;;;;;;;;;;5056001;28;20213;-75
2023/10/02 05:37:46;;;;;;;26.33;12.68;;;;;;;;;;5055462;28;20203;-74
2023/10/02 05:43:18;;;;;;;25.25;11.38;;;;;;;;;;5012600;28;20700;-74
2023/10/02 05:45:47;;;;;;;23.65;11.45;;;;;;;;;;5036197;28;20271;-74
2023/10/02 05:48:22;;;;;;;23.42;11.00;;;;;;;;;;5055966;28;20191;-74
2023/10/02 05:50:52;;;;;;;23.88;11.38;;;;;;;;;;5053957;28;20198;-74
2023/10/02 05:53:20;;;;;;;22.42;11.63;;;;;;;;;;5053672;28;20256;-74
2023/10/02 05:58:31;;;;;;;25.45;12.27;;;;;;;;;;5051691;28;20214;-74
2023/10/02 06:01:01;;;;;;;22.27;10.77;;;;;;;;;;5051952;28;20256;-74
2023/10/02 06:03:29;;;;;;;17.13;8.00;;;;;;;;;;5054429;28;20187;-74
2023/10/02 06:06:18;;;;;;;24.15;8.90;;;;;;;;;;5054384;28;20186;-74
2023/10/02 06:08:48;;;;;;;23.63;8.63;;;;;;;;;;5041797;28;20474;-74
2023/10/02 06:11:31;;;;;;;20.20;9.13;;;;;;;;;;5051961;28;20183;-75
2023/10/02 06:14:09;;;;;;;22.80;10.52;;;;;;;;;;5051745;28;20230;-74
2023/10/02 06:16:39;;;;;;;21.77;9.57;;;;;;;;;;5052150;28;20592;-74
2023/10/02 06:22:04;;;;;;;22.83;9.43;;;;;;;;;;5053542;28;20206;-74
2023/10/02 06:24:32;;;;;;;21.65;10.13;;;;;;;;;;5053715;28;20233;-75
2023/10/02 06:27:04;;;;;;;20.10;8.27;;;;;;;;;;5052475;28;20655;-74
2023/10/02 06:29:34;;;;;;;23.27;10.50;;;;;;;;;;5052565;28;20194;-75
2023/10/02 06:32:05;;;;;;;22.67;11.38;;;;;;;;;;5053979;28;20724;-75
2023/10/02 06:34:37;;;;;;;23.60;11.50;;;;;;;;;;5052976;28;20193;-75
2023/10/02 06:37:11;;;;;;;16.83;9.90;;;;;;;;;;5055894;28;20437;-75
2023/10/02 06:39:39;;;;;;;23.80;11.40;;;;;;;;;;5052045;28;20473;-74
2023/10/02 06:42:07;;;;;;;22.90;12.10;;;;;;;;;;5050979;28;20568;-75
2023/10/02 06:44:42;;;;;;;22.60;11.27;;;;;;;;;;5055410;28;20433;-74
2023/10/02 06:47:13;;;;;;;25.03;14.87;;;;;;;;;;5055740;28;20441;-74
2023/10/02 06:49:41;;;;;;;28.83;14.20;;;;;;;;;;5055560;28;20465;-75
2023/10/02 06:52:15;;;;;;;37.13;16.77;;;;;;;;;;5051692;28;20452;-75
2023/10/02 06:54:48;;;;;;;30.23;13.97;;;;;;;;;;5054271;28;20437;-75
2023/10/02 06:57:16;;;;;;;28.23;14.93;;;;;;;;;;5052303;28;20445;-75
2023/10/02 06:59:53;;;;;;;31.07;14.70;;;28.70;27.20;;;;;;5055771;28;20496;-75
2023/10/02 07:02:21;;;;;;;27.97;13.43;;;;;;;;;;5054792;28;20429;-75
2023/10/02 07:04:49;;;;;;;31.23;14.63;;;;;;;;;;5055361;28;20429;-75
2023/10/02 07:07:24;;;;;;;31.43;15.00;;;;;;;;;;5051710;28;20502;-75
2023/10/02 07:09:52;;;;;;;26.90;13.60;;;;;;;;;;5054101;28;20561;-76
2023/10/02 07:12:20;;;;;;;28.50;15.00;;;;;;;;;;5051197;28;20445;-74
2023/10/02 07:14:48;;;;;;;32.23;17.30;;;;;;;;;;5054665;28;20441;-75
2023/10/02 07:17:18;;;;;;;27.97;15.80;;;;;;;;;;5051475;28;20442;-76
2023/10/02 07:19:52;;;;;;;26.37;15.30;;;;;;;;;;5050452;28;20465;-76
2023/10/02 07:22:23;;;;;;;26.90;16.47;;;;;;;;;;5052348;28;20453;-75
2023/10/02 07:24:52;;;;;;;29.67;16.90;;;;;;;;;;5055494;28;20804;-76
2023/10/02 07:27:25;;;;;;;26.60;15.40;;;;;;;;;;5051905;28;20448;-76
2023/10/02 07:29:54;;;;;;;27.70;17.20;;;;;;;;;;5052036;28;20452;-76
2023/10/02 07:32:22;;;;;;;28.90;18.80;;;;;;;;;;5053273;28;20491;-76
2023/10/02 07:34:50;;;;;;;30.77;19.60;;;;;;;;;;5052052;28;20439;-76
2023/10/02 07:37:21;;;;;;;30.63;16.20;;;;;;;;;;5051350;28;20447;-75
2023/10/02 07:39:56;;;;;;;27.03;17.73;;;;;;;;;;5048239;28;20799;-75
2023/10/02 07:42:24;;;;;;;25.37;17.00;;;;;;;;;;5053292;28;20491;-76
2023/10/02 07:44:53;;;;;;;25.13;16.20;;;;;;;;;;5048288;28;20443;-75
2023/10/02 07:47:21;;;;;;;29.73;18.57;;;;;;;;;;5050878;28;20493;-76
2023/10/02 07:49:51;;;;;;;29.60;18.23;;;;;;;;;;5051747;28;20440;-76
2023/10/02 07:52:29;;;;;;;30.03;18.20;;;;;;;;;;5050759;28;20425;-76
2023/10/02 07:55:01;;;;;;;26.43;18.07;;;;;;;;;;5050905;28;20443;-76
2023/10/02 07:57:32;;;;;;;27.20;18.97;;;;;;;;;;5050790;28;20434;-75
2023/10/02 08:00:00;;;;;;;28.00;18.50;;;;;;;;;;5047715;28;20484;-76
2023/10/02 08:02:33;;;;;;;25.43;17.93;;;;;;;;;;5052744;28;20551;-76
2023/10/02 08:05:03;;;;;;;28.97;18.27;;;;;;;;;;5054811;28;20437;-76
2023/10/02 08:07:30;;;;;;;27.97;19.53;;;;;;;;;;5051247;28;20513;-76
2023/10/02 08:10:00;;;;;;;31.10;19.30;;;;;;;;;;5051603;28;20481;-76
2023/10/02 08:12:29;;;;;;;28.00;19.07;;;;;;;;;;5050519;28;20846;-76
2023/10/02 08:14:59;;;;;;;25.60;18.57;;;;;;;;;;5047020;28;20543;-76
2023/10/02 08:18:00;;;;;;;28.40;19.57;;;;;;;;;;5051342;28;20524;-76
2023/10/02 08:20:32;;;;;;;27.80;20.33;;;;;;;;;;5050082;28;20821;-76
2023/10/02 08:23:02;;;;;;;27.27;19.60;;;;;;;;;;5046919;28;20448;-76
2023/10/02 08:25:33;;;;;;;32.00;22.73;;;;;;;;;;5051300;28;20525;-76
2023/10/02 08:28:01;;;;;;;29.17;21.43;;;;;;;;;;5051094;28;20432;-75
2023/10/02 08:30:31;;;;;;;29.53;21.10;;;;;;;;;;5052490;28;20503;-74
2023/10/02 08:33:05;;;;;;;29.13;20.23;;;;;;;;;;5057438;28;20441;-74
2023/10/02 08:35:33;;;;;;;27.73;19.30;;;;;;;;;;5054364;28;20498;-74
2023/10/02 08:38:00;;;;;;;28.00;20.20;;;;;;;;;;5055233;28;20434;-74
2023/10/02 08:40:28;;;;;;;31.07;21.33;;;;;;;;;;5054835;28;20480;-75
2023/10/02 08:42:58;;;;;;;28.33;21.20;;;;;;;;;;5058244;28;20446;-74
2023/10/02 08:45:26;;;;;;;29.60;21.33;;;;;;;;;;5050614;28;20453;-74
2023/10/02 08:47:53;;;;;;;30.90;23.37;;;;;;;;;;5054698;28;20444;-74
2023/10/02 08:50:21;;;;;;;29.43;22.40;;;;;;;;;;5054764;28;20481;-75
2023/10/02 08:52:50;;;;;;;26.80;20.67;;;;;;;;;;5056568;28;20436;-74
2023/10/02 08:55:36;;;;;;;28.23;20.87;;;;;;;;;;5040616;28;20548;-75
2023/10/02 08:58:19;;;;;;;27.00;21.50;;;;;;;;;;5044265;28;20454;-75
2023/10/02 09:01:17;;;;;;;29.93;21.83;;;;;;;;;;5077987;28;20447;-75
2023/10/02 09:03:48;;;;;;;30.20;21.10;;;;;;;;;;5082524;28;20447;-74
2023/10/02 09:06:32;;;;;;;29.80;21.80;;;;;;;;;;5068096;28;20436;-75
2023/10/02 09:09:21;;;;;;;27.00;20.37;;;;;;;;;;5083925;28;20572;-75
2023/10/02 09:11:52;;;;;;;28.60;23.40;;;;;;;;;;5070149;28;20436;-75
2023/10/02 09:14:39;;;;;;;27.30;21.87;;;;;;;;;;5058398;28;20566;-75
2023/10/02 09:17:16;;;;;;;26.93;20.80;;;;;;;;;;5057591;28;20934;-75
2023/10/02 09:19:53;;;;;;;29.93;22.70;;;;;;;;;;5080310;28;20443;-75
2023/10/02 09:22:20;;;;;;;28.27;22.23;;;;;;;;;;5057282;28;20458;-75
2023/10/02 09:24:58;;;;;;;27.67;22.33;;;;;;;;;;5083731;28;20443;-75
2023/10/02 09:27:27;;;;;;;28.97;22.40;;;;;;;;;;5059588;28;20425;-75
2023/10/02 09:32:49;;;;;;;30.17;22.23;;;;;;;;;;5042767;28;21025;-75
2023/10/02 09:35:29;;;;;;;28.63;22.87;;;;;;;;;;5058019;28;20448;-74
2023/10/02 09:37:57;;;;;;;29.57;23.37;;;;;;;;;;5045673;28;20460;-75
2023/10/02 09:40:29;;;;;;;31.70;23.97;;;;;;;;;;5059972;28;20441;-76
2023/10/02 09:43:03;;;;;;;28.50;23.30;;;;;;;;;;5047240;28;20532;-75
2023/10/02 09:45:34;;;;;;;31.70;24.27;;;;;;;;;;5077057;28;20554;-75
2023/10/02 09:48:05;;;;;;;28.73;24.13;;;;;;;;;;5062868;28;21021;-74
2023/10/02 09:50:34;;;;;;;28.43;22.50;;;;;;;;;;5076594;28;20490;-75
2023/10/02 09:53:08;;;;;;;28.13;22.27;;;;;;;;;;5063290;28;20455;-75
2023/10/02 09:55:42;;;;;;;25.57;22.30;;;;;;;;;;5053177;28;20445;-75
2023/10/02 09:58:26;;;;;;;28.93;22.90;;;;;;;;;;5046573;28;20551;-75
2023/10/02 10:01:33;;;;;;;27.97;22.97;;;;;;;;;;5051215;28;20535;-75
2023/10/02 10:04:08;;;;;;;28.10;22.93;;;;;;;;;;5067115;28;21232;-75
2023/10/02 10:06:48;;;;;;;27.13;21.57;;;;;;;;;;5067044;28;20527;-75
2023/10/02 10:09:34;;;;;;;28.90;22.10;;;;;;;;;;5070582;28;20487;-74
2023/10/02 10:12:50;;;;;;;25.80;20.80;;;;;;;;;;5068669;28;20778;-75
2023/10/02 10:15:23;;;;;;;28.60;22.60;;;;;;;;;;5013214;28;20458;-75
2023/10/02 10:17:56;;;;;;;26.20;20.47;;;;;;;;;;5031701;28;20841;-74
2023/10/02 10:20:26;;;;;;;28.70;23.43;;;;;;;;;;5010189;28;20469;-75
2023/10/02 10:22:56;;;;;;;28.57;22.83;;;;;;;;;;5004791;28;20558;-75
2023/10/02 10:25:40;;;;;;;28.97;22.57;;;;;;;;;;5039805;28;20472;-75
2023/10/02 10:28:09;;;;;;;26.40;22.07;;;;;;;;;;5013063;28;20460;-75
2023/10/02 10:30:46;;;;;;;28.70;21.20;;;;;;;;;;5039548;28;20477;-75
2023/10/02 10:33:36;;;;;;;25.60;21.23;;;;;;;;;;5024860;28;20543;-75
2023/10/02 10:36:13;;;;;;;23.03;20.27;;;;;;;;;;5035916;28;20485;-75
2023/10/02 10:38:46;;;;;;;25.13;20.50;;;;;;;;;;5017163;28;20464;-75
2023/10/02 10:41:28;;;;;;;24.50;21.50;;;;;;;;;;5014227;28;20899;-75
2023/10/02 10:43:59;;;;;;;21.67;18.90;;;;;;;;;;5007490;28;20561;-75
2023/10/02 10:46:27;;;;;;;22.97;20.13;;;;;;;;;;5013337;28;20450;-76
2023/10/02 10:49:03;;;;;;;25.73;20.83;;;;;;;;;;5007681;28;20987;-74
2023/10/02 10:51:33;;;;;;;25.63;22.57;;;;;;;;;;5013070;28;20530;-75
2023/10/02 10:54:12;;;;;;;26.20;20.53;;;;;;;;;;5007016;28;20564;-76
2023/10/02 10:56:43;;;;;;;26.60;21.43;;;;;;;;;;5012126;28;20446;-75
2023/10/02 10:59:14;;;;;;;24.67;21.87;;;;;;;;;;5007739;28;21023;-75
2023/10/02 11:02:09;;;;;;;24.87;20.90;;;;;;;;;;5012196;28;20455;-75
2023/10/02 11:04:39;;;;;;;26.20;21.20;;;;;;;;;;5011831;28;21030;-75
2023/10/02 11:07:19;;;;;;;25.70;22.00;;;;;;;;;;5006608;28;20446;-75
2023/10/02 11:10:14;;;;;;;22.40;20.07;;;;;;;;;;5013195;28;20473;-75
2023/10/02 11:12:39;;;;;;;26.03;21.57;;;;;;;;;;5012268;28;20947;-75
2023/10/02 11:15:28;;;;;;;24.10;21.13;;;;;;;;;;5053134;28;20857;-75
2023/10/02 11:18:18;;;;;;;29.10;22.77;;;;;;;;;;5035467;28;20443;-75
2023/10/02 11:20:49;;;;;;;24.47;20.00;;;;;;;;;;5054588;28;20458;-76
2023/10/02 11:23:23;;;;;;;23.33;20.87;;;;;;;;;;5041365;28;20546;-76
2023/10/02 11:25:55;;;;;;;29.30;23.17;;;;;;;;;;5057756;28;20443;-76
2023/10/02 11:28:32;;;;;;;25.20;21.30;;;;;;;;;;5041555;28;20475;-76
2023/10/02 11:31:29;;;;;;;27.20;21.17;;;;;;;;;;5056108;28;20475;-75
2023/10/02 11:34:00;;;;;;;26.57;23.47;;;;;;;;;;5038776;28;20464;-75
2023/10/02 11:36:28;;;;;;;26.77;21.67;;;;;;;;;;5052559;28;20440;-75
2023/10/02 11:38:57;;;;;;;28.90;23.03;;;;;;;;;;5044731;28;20480;-76
2023/10/02 11:41:27;;;;;;;26.20;22.47;;;;;;;;;;5053521;28;20683;-76
2023/10/02 11:43:56;;;;;;;28.03;21.90;;;;;;;;;;5041758;28;21506;-76
2023/10/02 11:46:23;;;;;;;25.43;21.20;;;;;;;;;;5055840;28;20468;-76
2023/10/02 11:48:51;;;;;;;28.43;21.80;;;;;;;;;;5040414;28;20510;-75
2023/10/02 11:51:18;;;;;;;25.17;21.40;;;;;;;;;;5056544;28;20480;-76
2023/10/02 11:53:46;;;;;;;26.67;21.07;;;;;;;;;;5038605;28;20460;-76
2023/10/02 11:56:14;;;;;;;25.47;22.00;;;;;;;;;;5053232;28;20959;-75
2023/10/02 11:58:42;;;;;;;24.77;21.80;;;;;;;;;;5035590;28;20973;-76
2023/10/02 12:01:09;;;;;;;24.30;20.73;;;;;;;;;;5053223;28;20448;-76
2023/10/02 12:03:36;;;;;;;26.57;22.23;;;;;;;;;;5040991;28;20462;-74
2023/10/02 12:06:04;;;;;;;28.60;22.67;;;;;;;;;;5068521;28;20433;-75
2023/10/02 12:08:33;;;;;;;26.53;22.40;;;;;;;;;;5044352;28;20490;-76
2023/10/02 12:11:02;;;;;;;24.30;21.37;;;;;;;;;;5049455;28;20560;-76
2023/10/02 12:13:30;;;;;;;29.27;22.10;;;;;;;;;;5043893;28;20464;-75
2023/10/02 12:15:59;;;;;;;29.03;22.73;;;;;;;;;;5056933;28;20835;-75
2023/10/02 12:18:26;;;;;;;28.70;23.63;;;;;;;;;;5044859;28;20453;-75
2023/10/02 12:20:53;;;;;;;28.80;22.57;;;;;;;;;;5049074;28;20460;-76
2023/10/02 12:23:21;;;;;;;27.60;21.37;;;;;;;;;;5044668;28;20552;-75
2023/10/02 12:25:48;;;;;;;29.43;22.23;;;;;;;;;;5066939;28;20462;-75
2023/10/02 12:28:17;;;;;;;26.10;21.43;;;;;;;;;;5044574;28;20535;-74
2023/10/02 12:30:45;;;;;;;29.77;23.03;;;;;;;;;;5067484;28;20517;-75
2023/10/02 12:33:14;;;;;;;26.67;21.70;;;;;;;;;;5069183;28;20537;-75
2023/10/02 12:35:41;;;;;;;25.67;21.50;;;;;;;;;;5057994;28;20460;-75
2023/10/02 12:38:09;;;;;;;27.53;21.50;;;;;;;;;;5065267;28;20953;-75
2023/10/02 12:40:36;;;;;;;28.77;23.73;;;;;;;;;;5074683;28;20447;-75
2023/10/02 12:43:04;;;;;;;31.00;22.83;;;;;;;;;;5064748;28;20497;-75
2023/10/02 12:45:35;;;;;;;30.77;22.27;;;;;;;;;;5063250;28;20521;-75
2023/10/02 12:48:07;;;;;;;31.73;24.03;;;;;;;;;;5068138;28;20440;-75
2023/10/02 12:50:38;;;;;;;29.50;23.27;;;;;;;;;;5055552;28;20476;-75
2023/10/02 12:53:06;;;;;;;28.37;22.17;;;;;;;;;;5064958;28;20462;-75
2023/10/02 12:55:34;;;;;;;26.23;21.50;;;;;;;;;;5058761;28;20535;-75
2023/10/02 12:58:04;;;;;;;28.73;23.90;;;;;;;;;;5066416;28;20447;-75
2023/10/02 13:00:31;;;;;;;29.97;24.37;;;;;;;;;;5062382;28;20464;-75
2023/10/02 13:02:59;;;;;;;30.30;23.47;;;;;;;;;;5067718;28;20501;-74
2023/10/02 13:05:28;;;;;;;32.23;23.30;;;;;;;;;;5054828;28;20453;-75
2023/10/02 13:07:56;;;;;;;31.90;23.37;;;;;;;;;;5066936;28;20452;-74
2023/10/02 13:10:24;;;;;;;28.83;20.57;;;;;;;;;;5061212;28;20621;-72
2023/10/02 13:12:52;;;;;;;30.63;24.10;;;;;;;;;;5065236;28;20988;-75
2023/10/02 13:15:19;;;;;;;33.57;23.77;;;;;;;;;;5061772;28;20486;-75
2023/10/02 13:17:46;;;;;;;32.87;22.47;;;;;;;;;;5070079;28;20848;-75
2023/10/02 13:20:14;;;;;;;36.10;22.50;;;;;;;;;;5058875;28;20823;-73
2023/10/02 13:22:42;;;;;;;30.93;22.03;;;;;;;;;;5070995;28;20533;-74
2023/10/02 13:25:12;;;;;;;34.43;23.67;;;;;;;;;;5066973;28;20491;-74
2023/10/02 13:27:40;;;;;;;31.67;22.70;;;;;;;;;;5077512;28;20922;-74
2023/10/02 13:30:11;;;;;;;36.90;21.73;;;22.60;59.30;;;;;;5067568;28;20462;-74
2023/10/02 13:32:40;;;;;;;30.60;20.90;;;37.00;19.00;;;;;;5075214;28;20540;-74
2023/10/02 13:35:09;;;;;;;31.53;21.20;;;35.80;19.70;;;;;;5057101;28;20518;-74
2023/10/02 13:37:37;;;;;;;32.27;20.73;;;35.10;20.50;;;;;;5070388;28;20448;-74
2023/10/02 13:40:18;;;;;;;36.23;21.30;;;34.50;21.10;;;;;;5065161;28;20460;-74
2023/10/02 13:42:46;;;;;;;41.40;22.30;;;34.00;21.90;;;;;;5075203;28;20454;-75
2023/10/02 13:45:13;;;;;;;33.20;21.47;;;33.60;22.40;;;;;;5064796;28;20606;-74
2023/10/02 13:47:40;;;;;;;34.80;21.53;;;33.20;23.20;;;;;;5068753;28;20818;-74
2023/10/02 13:50:09;;;;;;;35.33;21.80;;;32.90;23.70;;;;;;5066138;28;20819;-73
2023/10/02 13:52:36;;;;;;;33.20;21.87;;;32.60;23.70;;;;;;5069478;28;20865;-73
2023/10/02 13:55:22;;;;;;;34.57;20.77;;;32.30;23.80;;;;;;5064800;28;20468;-74
2023/10/02 13:57:49;;;;;;;37.20;22.17;;;32.00;24.60;;;;;;5074744;28;20489;-74
2023/10/02 14:00:20;;;;;;;38.47;22.10;;;31.80;25.40;;;;;;5063371;28;20464;-74
2023/10/02 14:02:48;;;;;;;35.80;20.67;;;31.60;25.90;;;;;;5068586;28;20808;-73
2023/10/02 14:05:16;;;;;;;33.80;20.90;;;31.40;26.10;;;;;;5067144;28;20463;-74
2023/10/02 14:07:44;;;;;;;37.87;21.40;;;31.20;26.40;;;;;;5067755;28;20448;-74
2023/10/02 14:10:14;;;;;;;39.03;21.43;;;30.90;26.30;;;;;;5060164;28;20578;-74
2023/10/02 14:12:43;;;;;;;40.47;23.27;;;30.60;26.20;;;;;;5082369;28;20473;-74
2023/10/02 14:15:16;;;;;;;34.83;21.50;;;30.30;25.90;;;;;;5065456;28;20459;-73
2023/10/02 14:17:43;;;;;;;36.10;22.10;;;30.10;26.40;;;;;;5074364;28;20560;-75
2023/10/02 14:20:14;;;;;;;37.83;21.97;;;29.80;27.00;;;;;;5061494;28;20459;-73
2023/10/02 14:22:42;;;;;;;38.03;22.00;;;29.50;28.30;;;;;;5070204;28;20457;-74
2023/10/02 14:25:12;;;;;;;40.40;23.13;;;29.30;28.30;;;;;;5058837;28;21035;-73
2023/10/02 14:27:42;;;;;;;37.67;21.53;;;29.10;28.10;;;;;;5070288;28;20573;-73
2023/10/02 14:30:13;;;;;;;37.80;20.57;;;;;;;;;;5059510;28;20550;-74
2023/10/02 14:32:46;;;;;;;39.10;21.00;;;;;;;;;;5073899;28;20440;-73
2023/10/02 14:35:14;;;;;;;41.93;23.23;;;;;;;;;;5057052;28;20498;-74
2023/10/02 14:37:42;;;;;;;41.07;22.57;;;;;;;;;;5069923;28;20802;-72
2023/10/02 14:40:10;;;;;;;35.73;21.33;;;;;;;;;;5059817;28;20865;-74
2023/10/02 14:42:40;;;;;;;37.60;20.07;;;;;;;;;;5067760;28;20457;-75
2023/10/02 14:45:09;;;;;;;41.60;21.10;;;;;;;;;;5059110;28;20443;-76
2023/10/02 14:47:36;;;;;;;39.63;22.37;;;;;;;;;;5078231;28;20535;-76
2023/10/02 14:50:11;;;;;;;43.40;21.67;;;;;;;;;;5060814;28;20459;-75
2023/10/02 14:52:40;;;;;;;36.77;20.87;;;;;;;;;;5077496;28;20447;-76
2023/10/02 14:55:08;;;;;;;40.00;21.40;;;;;;;;;;5056258;28;21020;-76
2023/10/02 14:57:37;;;;;;;37.83;21.50;;;;;;;;;;5065051;28;20463;-76
2023/10/02 15:00:09;;;;;;;40.10;21.87;;;;;;;;;;5056085;28;20505;-76
2023/10/02 15:02:36;;;;;;;39.13;22.53;;;;;;;;;;5075446;28;20471;-76
2023/10/02 15:05:04;;;;;;;47.83;22.90;;;;;;;;;;5060567;28;20568;-75